createdAt,value
2018-09-03T00:01:01.584Z,97565.33
2018-09-03T00:03:29.263Z,97562.64
2018-09-03T00:05:57.051Z,97564.84
2018-09-03T00:08:24.761Z,97557.89
2018-09-03T00:10:52.457Z,97558.38
2018-09-03T00:13:20.149Z,97554.88
2018-09-03T00:15:47.902Z,97548.47
2018-09-03T00:18:15.612Z,97547.67
2018-09-03T00:20:43.629Z,97539.86
2018-09-03T00:23:11.412Z,97541.97
2018-09-03T00:25:39.100Z,97536.36
2018-09-03T00:28:06.772Z,97527.48
2018-09-03T00:30:34.448Z,97521.56
2018-09-03T00:33:07.486Z,97532.55
2018-09-03T00:35:40.600Z,97534.47
2018-09-03T00:38:13.455Z,97533.13
2018-09-03T00:40:46.463Z,97530.75
2018-09-03T00:43:19.543Z,97536.36
2018-09-03T00:45:52.471Z,97532.88
2018-09-03T00:48:20.173Z,97533.45
2018-09-03T00:50:47.976Z,97529.41
2018-09-03T00:53:15.652Z,97527.03
2018-09-03T00:55:43.348Z,97524.34
2018-09-03T00:58:11.127Z,97520.53
2018-09-03T01:00:38.835Z,97516.81
2018-09-03T01:03:06.584Z,97516.59
2018-09-03T01:05:34.258Z,97515.70
2018-09-03T01:08:01.915Z,97515.70
2018-09-03T01:10:29.631Z,97509.55
2018-09-03T01:12:57.292Z,97509.77
2018-09-03T01:15:26.688Z,97506.05
2018-09-03T01:17:54.320Z,97507.63
2018-09-03T01:20:22.853Z,97506.05
2018-09-03T01:22:50.506Z,97502.91
2018-09-03T01:25:18.179Z,97502.56
2018-09-03T01:27:45.990Z,97505.60
2018-09-03T01:30:13.646Z,97505.60
2018-09-03T01:32:41.413Z,97497.27
2018-09-03T01:35:09.086Z,97500.22
2018-09-03T01:37:36.751Z,97500.89
2018-09-03T01:40:04.459Z,97497.98
2018-09-03T01:42:32.215Z,97501.79
2018-09-03T01:44:59.861Z,97494.27
2018-09-03T01:47:27.617Z,97498.08
2018-09-03T01:49:55.307Z,97485.96
2018-09-03T01:52:23.009Z,97495.61
2018-09-03T01:54:50.677Z,97491.03
2018-09-03T01:57:18.477Z,97499.87
2018-09-03T01:59:46.234Z,97506.38
2018-09-03T02:02:13.994Z,97505.83
2018-09-03T02:04:41.661Z,97504.26
2018-09-03T02:07:09.350Z,97494.84
2018-09-03T02:09:37.076Z,97491.66
2018-09-03T02:12:08.994Z,97485.16
2018-09-03T02:14:36.688Z,97488.43
2018-09-03T02:17:04.392Z,97483.05
2018-09-03T02:19:32.066Z,97481.92
2018-09-03T02:21:59.753Z,97476.55
2018-09-03T02:24:27.409Z,97483.27
2018-09-03T02:26:55.215Z,97483.59
2018-09-03T02:29:22.905Z,97476.06
2018-09-03T02:31:50.616Z,97472.28
2018-09-03T02:34:18.293Z,97466.09
2018-09-03T02:36:46.024Z,97467.98
2018-09-03T02:39:13.735Z,97474.97
2018-09-03T02:41:41.404Z,97472.60
2018-09-03T02:44:09.094Z,97466.64
2018-09-03T02:46:36.799Z,97462.06
2018-09-03T02:49:04.621Z,97458.34
2018-09-03T02:51:32.284Z,97453.44
2018-09-03T02:54:00.001Z,97448.61
2018-09-03T02:56:27.698Z,97449.95
2018-09-03T02:58:55.393Z,97448.38
2018-09-03T03:01:23.069Z,97447.58
2018-09-03T03:03:50.847Z,97441.88
2018-09-03T03:06:18.587Z,97434.93
2018-09-03T03:08:46.386Z,97436.50
2018-09-03T03:11:14.050Z,97430.31
2018-09-03T03:13:41.896Z,97428.42
2018-09-03T03:16:09.709Z,97419.88
2018-09-03T03:18:37.452Z,97421.47
2018-09-03T03:21:05.277Z,97415.52
2018-09-03T03:23:33.206Z,97416.09
2018-09-03T03:26:00.889Z,97407.77
2018-09-03T03:28:28.587Z,97408.34
2018-09-03T03:30:56.353Z,97409.11
2018-09-03T03:33:24.050Z,97406.20
2018-09-03T03:35:51.773Z,97410.78
2018-09-03T03:38:19.474Z,97404.05
2018-09-03T03:40:47.189Z,97413.15
2018-09-03T03:43:15.105Z,97410.23
2018-09-03T03:45:42.834Z,97408.89
2018-09-03T03:48:10.495Z,97406.74
2018-09-03T03:50:38.224Z,97406.20
2018-09-03T03:53:05.945Z,97401.03
2018-09-03T03:55:33.783Z,97401.03
2018-09-03T03:58:01.518Z,97397.00
2018-09-03T04:00:29.200Z,97389.25
2018-09-03T04:02:56.859Z,97391.94
2018-09-03T04:05:24.612Z,97394.36
2018-09-03T04:07:52.456Z,97393.66
2018-09-03T04:10:20.275Z,97397.00
2018-09-03T04:12:53.961Z,97401.29
2018-09-03T04:15:22.250Z,97404.85
2018-09-03T04:17:50.369Z,97400.27
2018-09-03T04:20:18.100Z,97402.77
2018-09-03T04:22:45.803Z,97407.13
2018-09-03T04:25:13.534Z,97404.20
2018-09-03T04:27:41.304Z,97404.20
2018-09-03T04:30:09.076Z,97404.20
2018-09-03T04:32:36.914Z,97410.70
2018-09-03T04:35:04.673Z,97408.24
2018-09-03T04:37:32.408Z,97409.91
2018-09-03T04:40:00.218Z,97409.91
2018-09-03T04:42:28.677Z,97404.53
2018-09-03T04:44:56.329Z,97402.95
2018-09-03T04:47:24.073Z,97403.41
2018-09-03T04:49:51.748Z,97395.91
2018-09-03T04:52:19.552Z,97399.69
2018-09-03T04:54:47.431Z,97402.16
2018-09-03T04:57:15.108Z,97404.85
2018-09-03T04:59:42.771Z,97401.61
2018-09-03T05:02:10.482Z,97406.34
2018-09-03T05:04:38.234Z,97402.38
2018-09-03T05:07:05.976Z,97407.44
2018-09-03T05:09:33.805Z,97408.79
2018-09-03T05:12:01.450Z,97407.77
2018-09-03T05:14:29.214Z,97409.69
2018-09-03T05:16:56.983Z,97411.80
2018-09-03T05:19:24.773Z,97405.65
2018-09-03T05:21:52.917Z,97408.56
2018-09-03T05:24:20.576Z,97407.31
2018-09-03T05:26:48.407Z,97404.05
2018-09-03T05:29:16.080Z,97407.00
2018-09-03T05:31:44.011Z,97403.18
2018-09-03T05:34:11.800Z,97403.18
2018-09-03T05:36:39.554Z,97398.34
2018-09-03T05:39:08.213Z,97402.38
2018-09-03T05:41:35.934Z,97401.03
2018-09-03T05:44:03.669Z,97399.94
2018-09-03T05:46:31.370Z,97396.03
2018-09-03T05:48:59.028Z,97392.32
2018-09-03T05:51:26.728Z,97389.30
2018-09-03T05:53:54.469Z,97395.59
2018-09-03T05:56:22.102Z,97388.28
2018-09-03T05:58:49.887Z,97388.28
2018-09-03T06:01:17.623Z,97388.86
2018-09-03T06:03:45.406Z,97385.59
2018-09-03T06:06:13.127Z,97379.66
2018-09-03T06:08:40.844Z,97378.77
2018-09-03T06:11:08.623Z,97379.34
2018-09-03T06:13:36.717Z,97377.19
2018-09-03T06:16:04.421Z,97375.84
2018-09-03T06:18:32.666Z,97376.88
2018-09-03T06:21:00.442Z,97379.02
2018-09-03T06:23:28.273Z,97369.34
2018-09-03T06:25:56.022Z,97369.27
2018-09-03T06:28:23.705Z,97366.91
2018-09-03T06:30:51.439Z,97366.66
2018-09-03T06:33:19.097Z,97370.69
2018-09-03T06:35:46.918Z,97378.22
2018-09-03T06:38:14.676Z,97372.84
2018-09-03T06:40:42.378Z,97369.70
2018-09-03T06:43:10.034Z,97376.17
2018-09-03T06:45:37.782Z,97373.48
2018-09-03T06:48:05.525Z,97376.42
2018-09-03T06:50:33.205Z,97389.88
2018-09-03T06:53:00.869Z,97387.73
2018-09-03T06:55:28.558Z,97391.77
2018-09-03T06:57:56.281Z,97390.10
2018-09-03T07:00:24.157Z,97390.88
2018-09-03T07:02:51.873Z,97389.53
2018-09-03T07:05:19.629Z,97395.71
2018-09-03T07:07:47.388Z,97395.94
2018-09-03T07:10:15.192Z,97403.46
2018-09-03T07:12:42.994Z,97402.22
2018-09-03T07:15:10.716Z,97402.77
2018-09-03T07:17:38.410Z,97407.27
2018-09-03T07:20:06.113Z,97405.45
2018-09-03T07:22:33.923Z,97406.58
2018-09-03T07:25:01.682Z,97406.89
2018-09-03T07:27:29.368Z,97408.47
2018-09-03T07:29:57.176Z,97404.20
2018-09-03T07:32:24.990Z,97406.58
2018-09-03T07:34:52.713Z,97403.66
2018-09-03T07:37:20.374Z,97402.53
2018-09-03T07:39:48.144Z,97390.42
2018-09-03T07:42:15.820Z,97385.37
2018-09-03T07:44:43.538Z,97384.89
2018-09-03T07:47:11.410Z,97388.06
2018-09-03T07:49:39.116Z,97381.66
2018-09-03T07:52:06.850Z,97369.55
2018-09-03T07:54:34.600Z,97371.44
2018-09-03T07:57:02.500Z,97370.89
2018-09-03T07:59:30.226Z,97373.80
2018-09-03T08:01:57.944Z,97371.69
2018-09-03T08:04:25.838Z,97382.78
2018-09-03T08:06:53.591Z,97387.03
2018-09-03T08:09:21.369Z,97384.67
2018-09-03T08:11:49.105Z,97384.34
2018-09-03T08:14:16.798Z,97405.65
2018-09-03T08:16:44.807Z,97386.23
2018-09-03T08:19:12.594Z,97383.00
2018-09-03T08:21:40.358Z,97385.91
2018-09-03T08:24:08.119Z,97383.48
2018-09-03T08:26:35.851Z,97383.00
2018-09-03T08:29:03.658Z,97387.26
2018-09-03T08:31:31.451Z,97387.84
2018-09-03T08:33:59.132Z,97387.52
2018-09-03T08:36:26.968Z,97387.26
2018-09-03T08:38:54.723Z,97386.71
2018-09-03T08:41:22.404Z,97380.53
2018-09-03T08:43:50.116Z,97382.03
2018-09-03T08:46:17.846Z,97378.31
2018-09-03T08:48:45.765Z,97375.52
2018-09-03T08:51:13.471Z,97374.66
2018-09-03T08:53:41.326Z,97376.70
2018-09-03T08:56:09.104Z,97374.88
2018-09-03T08:58:36.836Z,97373.86
2018-09-03T09:01:04.508Z,97379.78
2018-09-03T09:03:37.313Z,97376.33
2018-09-03T09:06:04.966Z,97372.52
2018-09-03T09:08:32.719Z,97365.13
2018-09-03T09:11:00.539Z,97365.94
2018-09-03T09:13:28.326Z,97364.71
2018-09-03T09:15:56.252Z,97363.52
2018-09-03T09:18:23.993Z,97360.50
2018-09-03T09:20:51.770Z,97359.08
2018-09-03T09:23:19.545Z,97357.09
2018-09-03T09:25:47.370Z,97353.84
2018-09-03T09:28:15.171Z,97356.64
2018-09-03T09:30:43.049Z,97354.28
2018-09-03T09:33:10.928Z,97352.98
2018-09-03T09:35:38.685Z,97349.63
2018-09-03T09:38:06.395Z,97350.55
2018-09-03T09:40:34.101Z,97351.25
2018-09-03T09:43:01.907Z,97349.90
2018-09-03T09:45:29.597Z,97348.55
2018-09-03T09:47:57.304Z,97357.07
2018-09-03T09:50:25.488Z,97350.92
2018-09-03T09:52:53.225Z,97349.25
2018-09-03T09:55:21.017Z,97355.98
2018-09-03T09:57:48.787Z,97356.05
2018-09-03T10:00:21.957Z,97362.56
2018-09-03T10:02:49.662Z,97362.45
2018-09-03T10:05:17.283Z,97356.30
2018-09-03T10:07:44.918Z,97351.36
2018-09-03T10:10:12.604Z,97349.47
2018-09-03T10:12:40.271Z,97350.70
2018-09-03T10:15:07.910Z,97349.36
2018-09-03T10:17:35.605Z,97343.33
2018-09-03T10:20:03.821Z,97339.33
2018-09-03T10:22:31.642Z,97333.06
2018-09-03T10:24:59.346Z,97334.41
2018-09-03T10:27:27.076Z,97331.53
2018-09-03T10:29:54.787Z,97337.14
2018-09-03T10:32:22.885Z,97341.83
2018-09-03T10:34:50.684Z,97336.77
2018-09-03T10:37:18.350Z,97337.10
2018-09-03T10:39:46.014Z,97331.49
2018-09-03T10:42:13.801Z,97335.42
2018-09-03T10:44:41.445Z,97332.84
2018-09-03T10:47:09.160Z,97336.30
2018-09-03T10:49:36.772Z,97329.82
2018-09-03T10:52:04.451Z,97333.53
2018-09-03T10:54:32.108Z,97333.06
2018-09-03T10:56:59.755Z,97329.56
2018-09-03T10:59:27.377Z,97338.23
2018-09-03T11:01:55.025Z,97334.52
2018-09-03T11:04:22.667Z,97333.72
2018-09-03T11:06:50.301Z,97333.72
2018-09-03T11:09:17.954Z,97329.34
2018-09-03T11:11:45.580Z,97330.22
2018-09-03T11:14:13.337Z,97334.84
2018-09-03T11:16:40.973Z,97331.49
2018-09-03T11:19:08.616Z,97335.28
2018-09-03T11:21:36.503Z,97338.45
2018-09-03T11:24:03.920Z,97340.13
2018-09-03T11:26:31.553Z,97338.45
2018-09-03T11:28:59.182Z,97330.52
2018-09-03T11:31:26.805Z,97324.00
2018-09-03T11:33:54.454Z,97315.48
2018-09-03T11:36:22.083Z,97314.60
2018-09-03T11:38:49.710Z,97319.99
2018-09-03T11:41:17.346Z,97314.27
2018-09-03T11:43:45.001Z,97316.17
2018-09-03T11:46:12.655Z,97313.70
2018-09-03T11:48:40.315Z,97318.42
2018-09-03T11:51:07.998Z,97303.61
2018-09-03T11:53:35.731Z,97310.05
2018-09-03T11:56:03.365Z,97312.55
2018-09-03T11:58:31.079Z,97313.92
2018-09-03T12:01:00.106Z,97315.60
2018-09-03T12:03:27.831Z,97312.44
2018-09-03T12:05:55.530Z,97312.33
2018-09-03T12:08:23.168Z,97313.68
2018-09-03T12:10:50.894Z,97310.21
2018-09-03T12:13:18.542Z,97308.09
2018-09-03T12:16:18.952Z,97304.94
2018-09-03T12:18:47.077Z,97308.95
2018-09-03T12:21:15.275Z,97314.52
2018-09-03T12:23:43.591Z,97293.68
2018-09-03T12:26:11.474Z,97301.94
2018-09-03T12:28:39.123Z,97294.31
2018-09-03T12:31:07.201Z,97306.44
2018-09-03T12:33:34.969Z,97306.55
2018-09-03T12:36:03.010Z,97301.50
2018-09-03T12:38:30.659Z,97313.95
2018-09-03T12:40:58.318Z,97317.98
2018-09-03T12:43:26.081Z,97317.19
2018-09-03T12:46:00.814Z,97312.34
2018-09-03T12:48:28.714Z,97316.06
2018-09-03T12:50:56.892Z,97311.58
2018-09-03T12:53:24.597Z,97319.34
2018-09-03T12:55:52.264Z,97251.27
2018-09-03T12:58:20.430Z,97318.42
2018-09-03T13:00:48.260Z,97319.77
2018-09-03T13:03:16.095Z,97320.76
2018-09-03T13:05:43.764Z,97321.89
2018-09-03T13:08:11.589Z,97320.32
2018-09-03T13:10:39.329Z,97317.30
2018-09-03T13:13:07.154Z,97316.28
2018-09-03T13:15:34.887Z,97314.38
2018-09-03T13:18:02.712Z,97319.20
2018-09-03T13:20:30.527Z,97318.64
2018-09-03T13:22:58.251Z,97312.45
2018-09-03T13:25:25.914Z,97310.45
2018-09-03T13:27:53.563Z,97312.02
2018-09-03T13:30:21.202Z,97308.64
2018-09-03T13:32:48.838Z,97306.73
2018-09-03T13:35:16.494Z,97304.84
2018-09-03T13:37:44.156Z,97301.83
2018-09-03T13:40:11.815Z,97298.55
2018-09-03T13:42:39.455Z,97298.22
2018-09-03T13:45:07.098Z,97302.27
2018-09-03T13:47:34.733Z,97294.10
2018-09-03T13:50:02.369Z,97296.69
2018-09-03T13:52:30.260Z,97288.27
2018-09-03T13:54:57.952Z,97291.33
2018-09-03T13:57:25.639Z,97289.43
2018-09-03T13:59:53.370Z,97294.05
2018-09-03T14:02:21.117Z,97296.08
2018-09-03T14:04:48.818Z,97291.68
2018-09-03T14:07:16.441Z,97281.89
2018-09-03T14:09:44.178Z,97280.87
2018-09-03T14:12:11.852Z,97286.59
2018-09-03T14:14:39.457Z,97282.41
2018-09-03T14:17:07.169Z,97281.86
2018-09-03T14:19:34.829Z,97281.53
2018-09-03T14:22:02.478Z,97284.45
2018-09-03T14:24:30.196Z,97285.11
2018-09-03T14:26:58.009Z,97287.14
2018-09-03T14:29:25.771Z,97281.89
2018-09-03T14:31:53.546Z,97279.89
2018-09-03T14:34:21.275Z,97275.05
2018-09-03T14:36:49.057Z,97285.05
2018-09-03T14:39:16.866Z,97283.38
2018-09-03T14:41:44.623Z,97271.41
2018-09-03T14:44:12.497Z,97270.77
2018-09-03T14:46:40.316Z,97272.09
2018-09-03T14:49:08.365Z,97268.33
2018-09-03T14:51:36.182Z,97269.46
2018-09-03T14:54:03.934Z,97267.98
2018-09-03T14:56:31.827Z,97264.19
2018-09-03T14:58:59.630Z,97263.85
2018-09-03T15:01:27.486Z,97263.91
2018-09-03T15:03:55.336Z,97266.39
2018-09-03T15:06:23.178Z,97268.64
2018-09-03T15:08:51.128Z,97273.03
2018-09-03T15:11:18.839Z,97272.37
2018-09-03T15:13:50.713Z,97270.80
2018-09-03T15:16:18.853Z,97269.78
2018-09-03T15:18:46.584Z,97274.86
2018-09-03T15:21:14.370Z,97268.67
2018-09-03T15:23:42.348Z,97262.39
2018-09-03T15:26:10.385Z,97266.33
2018-09-03T15:28:38.214Z,97269.23
2018-09-03T15:31:05.981Z,97271.93
2018-09-03T15:33:33.853Z,97263.84
2018-09-03T15:36:01.819Z,97263.91
2018-09-03T15:38:29.578Z,97269.77
2018-09-03T15:40:57.325Z,97267.89
2018-09-03T15:43:25.089Z,97268.44
2018-09-03T15:45:52.907Z,97267.97
2018-09-03T15:48:20.696Z,97268.66
2018-09-03T15:50:48.458Z,97264.14
2018-09-03T15:53:16.101Z,97266.16
2018-09-03T15:55:43.744Z,97265.66
2018-09-03T15:58:11.371Z,97263.16
2018-09-03T16:00:39.088Z,97267.57
2018-09-03T16:03:06.801Z,97260.39
2018-09-03T16:05:34.345Z,97263.78
2018-09-03T16:08:01.982Z,97260.38
2018-09-03T16:10:29.605Z,97262.66
2018-09-03T16:12:57.221Z,97262.78
2018-09-03T16:15:24.851Z,97257.34
2018-09-03T16:17:52.533Z,97263.59
2018-09-03T16:20:20.179Z,97270.56
2018-09-03T16:22:47.830Z,97270.63
2018-09-03T16:25:15.511Z,97270.64
2018-09-03T16:27:43.216Z,97278.45
2018-09-03T16:30:10.809Z,97282.82
2018-09-03T16:32:38.511Z,97288.11
2018-09-03T16:35:06.137Z,97286.98
2018-09-03T16:37:33.839Z,97289.67
2018-09-03T16:40:01.719Z,97283.81
2018-09-03T16:42:29.438Z,97285.49
2018-09-03T16:44:57.106Z,97281.23
2018-09-03T16:47:24.742Z,97279.42
2018-09-03T16:49:52.419Z,97287.75
2018-09-03T16:52:20.065Z,97279.89
2018-09-03T16:54:47.730Z,97282.69
2018-09-03T16:57:15.382Z,97278.31
2018-09-03T16:59:43.049Z,97266.90
2018-09-03T17:02:10.675Z,97267.15
2018-09-03T17:04:39.066Z,97270.80
2018-09-03T17:07:06.907Z,97273.95
2018-09-03T17:09:35.001Z,97283.70
2018-09-03T17:12:02.612Z,97273.34
2018-09-03T17:14:30.758Z,97274.71
2018-09-03T17:16:58.460Z,97280.33
2018-09-03T17:19:26.264Z,97278.41
2018-09-03T17:21:53.914Z,97281.40
2018-09-03T17:24:21.793Z,97280.71
2018-09-03T17:26:49.583Z,97282.97
2018-09-03T17:29:17.686Z,97282.39
2018-09-03T17:31:45.470Z,97278.67
2018-09-03T17:34:13.286Z,97288.44
2018-09-03T17:36:41.016Z,97285.73
2018-09-03T17:39:09.376Z,97291.38
2018-09-03T17:41:37.265Z,97289.38
2018-09-03T17:44:04.994Z,97285.98
2018-09-03T17:46:32.726Z,97287.34
2018-09-03T17:49:00.521Z,97286.32
2018-09-03T17:51:28.188Z,97289.56
2018-09-03T17:53:55.813Z,97294.51
2018-09-03T17:56:23.436Z,97295.06
2018-09-03T17:58:51.149Z,97302.92
2018-09-03T18:01:18.777Z,97298.62
2018-09-03T18:03:46.497Z,97306.70
2018-09-03T18:06:14.163Z,97308.63
2018-09-03T18:08:41.853Z,97307.51
2018-09-03T18:11:09.514Z,97309.98
2018-09-03T18:13:37.185Z,97315.37
2018-09-03T18:16:04.849Z,97313.22
2018-09-03T18:18:32.460Z,97309.73
2018-09-03T18:21:00.400Z,97302.23
2018-09-03T18:23:28.037Z,97311.88
2018-09-03T18:25:55.670Z,97311.33
2018-09-03T18:28:23.377Z,97318.28
2018-09-03T18:30:51.111Z,97317.73
2018-09-03T18:33:18.752Z,97319.95
2018-09-03T18:35:46.396Z,97321.30
2018-09-03T18:38:14.034Z,97323.20
2018-09-03T18:40:41.674Z,97331.75
2018-09-03T18:43:09.281Z,97326.47
2018-09-03T18:45:36.909Z,97327.81
2018-09-03T18:48:04.543Z,97329.71
2018-09-03T18:50:32.557Z,97338.12
2018-09-03T18:53:01.245Z,97338.34
2018-09-03T18:55:29.201Z,97338.02
2018-09-03T18:57:56.857Z,97346.75
2018-09-03T19:00:24.560Z,97345.66
2018-09-03T19:02:52.233Z,97343.73
2018-09-03T19:05:19.938Z,97345.08
2018-09-03T19:07:47.649Z,97343.18
2018-09-03T19:10:15.301Z,97337.58
2018-09-03T19:12:43.086Z,97345.66
2018-09-03T19:15:10.869Z,97342.16
2018-09-03T19:17:38.632Z,97347.77
2018-09-03T19:20:06.324Z,97343.98
2018-09-03T19:22:34.027Z,97344.52
2018-09-03T19:25:01.812Z,97347.22
2018-09-03T19:27:29.538Z,97343.98
2018-09-03T19:29:57.428Z,97334.30
2018-09-03T19:32:25.605Z,97348.67
2018-09-03T19:34:53.347Z,97338.12
2018-09-03T19:37:21.058Z,97339.25
2018-09-03T19:39:48.775Z,97336.88
2018-09-03T19:42:16.488Z,97334.95
2018-09-03T19:44:44.121Z,97330.70
2018-09-03T19:47:12.057Z,97331.49
2018-09-03T19:49:39.706Z,97334.19
2018-09-03T19:52:07.421Z,97331.72
2018-09-03T19:54:35.344Z,97331.49
2018-09-03T19:57:03.036Z,97335.75
2018-09-03T19:59:30.820Z,97337.43
2018-09-03T20:01:58.542Z,97335.53
2018-09-03T20:04:26.299Z,97333.61
2018-09-03T20:06:53.989Z,97334.19
2018-09-03T20:09:21.747Z,97334.95
2018-09-03T20:11:49.529Z,97337.10
2018-09-03T20:14:17.523Z,97335.20
2018-09-03T20:16:45.289Z,97334.41
2018-09-03T20:19:12.994Z,97331.72
2018-09-03T20:21:40.658Z,97335.20
2018-09-03T20:24:08.375Z,97337.65
2018-09-03T20:26:36.132Z,97338.45
2018-09-03T20:29:03.839Z,97330.04
2018-09-03T20:31:31.709Z,97328.14
2018-09-03T20:33:59.369Z,97324.98
2018-09-03T20:36:27.180Z,97326.00
2018-09-03T20:38:54.722Z,97326.88
2018-09-03T20:41:22.396Z,97321.48
2018-09-03T20:43:50.132Z,97319.38
2018-09-03T20:46:17.813Z,97314.75
2018-09-03T20:48:45.607Z,97315.55
2018-09-03T20:51:13.281Z,97312.64
2018-09-03T20:53:40.944Z,97316.10
2018-09-03T20:56:08.660Z,97316.10
2018-09-03T20:58:36.773Z,97318.25
2018-09-03T21:01:04.588Z,97318.25
2018-09-03T21:03:33.567Z,97313.19
2018-09-03T21:06:01.278Z,97313.41
2018-09-03T21:08:29.101Z,97322.28
2018-09-03T21:10:56.703Z,97324.98
2018-09-03T21:13:24.339Z,97319.92
2018-09-03T21:15:52.027Z,97320.72
2018-09-03T21:18:19.768Z,97313.19
2018-09-03T21:20:47.478Z,97312.39
2018-09-03T21:23:15.164Z,97314.31
2018-09-03T21:25:42.923Z,97304.31
2018-09-03T21:28:10.625Z,97305.66
2018-09-03T21:30:38.349Z,97308.13
2018-09-03T21:33:06.096Z,97308.13
2018-09-03T21:35:33.758Z,97308.68
2018-09-03T21:38:01.500Z,97311.16
2018-09-03T21:40:29.158Z,97311.95
2018-09-03T21:42:56.881Z,97303.07
2018-09-03T21:45:24.593Z,97307.66
2018-09-03T21:47:52.339Z,97310.60
2018-09-03T21:50:19.989Z,97303.30
2018-09-03T21:52:47.695Z,97304.20
2018-09-03T21:55:15.428Z,97305.44
2018-09-03T21:57:43.237Z,97306.56
2018-09-03T22:00:11.324Z,97305.55
2018-09-03T22:02:39.080Z,97302.05
2018-09-03T22:05:06.788Z,97301.72
2018-09-03T22:07:34.903Z,97304.97
2018-09-03T22:10:02.682Z,97307.66
2018-09-03T22:12:30.487Z,97310.13
2018-09-03T22:14:58.184Z,97313.84
2018-09-03T22:17:26.038Z,97312.50
2018-09-03T22:19:53.816Z,97315.19
2018-09-03T22:22:21.570Z,97306.09
2018-09-03T22:24:49.321Z,97304.20
2018-09-03T22:27:17.024Z,97305.08
2018-09-03T22:29:44.752Z,97300.70
2018-09-03T22:32:12.518Z,97304.20
2018-09-03T22:34:40.245Z,97298.23
2018-09-03T22:37:07.937Z,97296.67
2018-09-03T22:39:35.685Z,97294.77
2018-09-03T22:42:03.650Z,97295.10
2018-09-03T22:44:31.313Z,97295.32
2018-09-03T22:46:59.067Z,97297.00
2018-09-03T22:49:26.850Z,97298.34
2018-09-03T22:51:54.607Z,97297.00
2018-09-03T22:54:22.305Z,97296.20
2018-09-03T22:56:49.988Z,97290.04
2018-09-03T22:59:17.716Z,97295.42
2018-09-03T23:01:45.432Z,97290.38
2018-09-03T23:04:13.197Z,97292.16
2018-09-03T23:06:40.968Z,97292.95
2018-09-03T23:09:08.612Z,97290.81
2018-09-03T23:11:36.457Z,97286.77
2018-09-03T23:14:04.240Z,97291.39
2018-09-03T23:16:31.942Z,97295.42
2018-09-03T23:18:59.751Z,97295.98
2018-09-03T23:21:27.580Z,97298.67
2018-09-03T23:23:55.345Z,97300.56
2018-09-03T23:26:23.065Z,97294.63
2018-09-03T23:28:50.770Z,97290.04
2018-09-03T23:31:18.483Z,97295.65
2018-09-03T23:33:46.193Z,97291.47
2018-09-03T23:36:13.906Z,97292.16
2018-09-03T23:38:41.676Z,97287.34
2018-09-03T23:41:09.413Z,97286.00
2018-09-03T23:43:37.142Z,97215.84
2018-09-03T23:46:04.841Z,97276.33
2018-09-03T23:48:32.554Z,97274.44
2018-09-03T23:51:00.437Z,97269.84
2018-09-03T23:53:28.245Z,97267.02
2018-09-03T23:55:55.912Z,97262.17
2018-09-03T23:58:23.697Z,97264.78
